createdAt,value
2019-01-24T00:00:08.500Z,-2.40
2019-01-24T00:02:36.952Z,-2.40
2019-01-24T00:05:07.342Z,-2.40
2019-01-24T00:07:35.811Z,-2.40
2019-01-24T00:10:07.649Z,-2.40
2019-01-24T00:12:36.110Z,-2.40
2019-01-24T00:15:09.393Z,-2.40
2019-01-24T00:17:37.874Z,-2.40
2019-01-24T00:20:09.634Z,-2.40
2019-01-24T00:22:38.154Z,-2.30
2019-01-24T00:25:08.173Z,-2.30
2019-01-24T00:27:36.660Z,-2.20
2019-01-24T00:30:15.406Z,-2.20
2019-01-24T00:32:44.013Z,-2.20
2019-01-24T00:35:12.522Z,-2.20
2019-01-24T00:37:41.057Z,-2.20
2019-01-24T00:40:12.947Z,-2.30
2019-01-24T00:42:41.423Z,-2.30
2019-01-24T00:45:10.311Z,-2.30
2019-01-24T00:47:38.784Z,-2.30
2019-01-24T00:50:09.874Z,-2.30
2019-01-24T00:52:38.357Z,-2.20
2019-01-24T00:55:12.034Z,-2.20
2019-01-24T00:57:40.557Z,-2.20
2019-01-24T01:00:12.082Z,-2.20
2019-01-24T01:02:40.575Z,-2.20
2019-01-24T01:05:11.857Z,-2.30
2019-01-24T01:07:40.402Z,-2.40
2019-01-24T01:10:11.096Z,-2.40
2019-01-24T01:12:39.721Z,-2.50
2019-01-24T01:15:11.174Z,-2.50
2019-01-24T01:17:39.648Z,-2.50
2019-01-24T01:20:11.321Z,-2.50
2019-01-24T01:22:39.801Z,-2.50
2019-01-24T01:25:10.590Z,-2.50
2019-01-24T01:27:39.228Z,-2.40
2019-01-24T01:30:11.050Z,-2.40
2019-01-24T01:32:39.583Z,-2.40
2019-01-24T01:35:08.378Z,-2.30
2019-01-24T01:37:36.850Z,-2.30
2019-01-24T01:40:08.714Z,-2.30
2019-01-24T01:42:37.167Z,-2.40
2019-01-24T01:45:08.647Z,-2.40
2019-01-24T01:47:37.134Z,-2.30
2019-01-24T01:50:08.658Z,-2.30
2019-01-24T01:52:37.096Z,-2.30
2019-01-24T01:55:06.190Z,-2.30
2019-01-24T01:57:34.668Z,-2.20
2019-01-24T02:00:03.458Z,-2.20
2019-01-24T02:02:31.940Z,-2.20
2019-01-24T02:05:00.487Z,-2.20
2019-01-24T02:07:28.949Z,-2.20
2019-01-24T02:09:57.431Z,-2.20
2019-01-24T02:12:25.864Z,-2.10
2019-01-24T02:14:54.338Z,-2.10
2019-01-24T02:17:22.871Z,-2.10
2019-01-24T02:19:51.358Z,-2.10
2019-01-24T02:22:19.794Z,-2.00
2019-01-24T02:24:48.267Z,-2.10
2019-01-24T02:27:16.739Z,-2.10
2019-01-24T02:29:45.199Z,-2.10
2019-01-24T02:32:13.651Z,-2.10
2019-01-24T02:34:42.120Z,-2.10
2019-01-24T02:37:10.567Z,-2.10
2019-01-24T02:39:39.045Z,-2.10
2019-01-24T02:42:07.493Z,-2.10
2019-01-24T02:44:35.962Z,-2.10
2019-01-24T02:47:04.402Z,-2.10
2019-01-24T02:49:32.863Z,-2.20
2019-01-24T02:52:01.305Z,-2.30
2019-01-24T02:54:29.798Z,-2.30
2019-01-24T02:56:58.253Z,-2.20
2019-01-24T02:59:26.717Z,-2.20
2019-01-24T03:01:55.164Z,-2.20
2019-01-24T03:04:23.624Z,-2.20
2019-01-24T03:06:52.069Z,-2.20
2019-01-24T03:09:20.615Z,-2.20
2019-01-24T03:11:49.123Z,-2.20
2019-01-24T03:14:17.614Z,-2.20
2019-01-24T03:16:46.059Z,-2.20
2019-01-24T03:19:14.526Z,-2.20
2019-01-24T03:21:42.982Z,-2.20
2019-01-24T03:24:11.442Z,-2.20
2019-01-24T03:26:39.927Z,-2.20
2019-01-24T03:29:08.430Z,-2.10
2019-01-24T03:31:36.907Z,-2.10
2019-01-24T03:34:05.432Z,-2.10
2019-01-24T03:36:34.625Z,-2.10
2019-01-24T03:39:04.746Z,-2.10
2019-01-24T03:41:33.226Z,-2.10
2019-01-24T03:44:01.688Z,-2.10
2019-01-24T03:46:30.214Z,-2.10
2019-01-24T03:48:58.658Z,-2.00
2019-01-24T03:51:27.207Z,-2.00
2019-01-24T03:53:55.652Z,-2.00
2019-01-24T03:56:24.161Z,-2.00
2019-01-24T03:58:52.867Z,-2.10
2019-01-24T04:01:21.402Z,-2.10
2019-01-24T04:03:49.921Z,-2.20
2019-01-24T04:06:18.402Z,-2.20
2019-01-24T04:08:46.845Z,-2.20
2019-01-24T04:11:15.327Z,-2.30
2019-01-24T04:13:43.773Z,-2.30
2019-01-24T04:16:12.242Z,-2.30
2019-01-24T04:18:40.698Z,-2.30
2019-01-24T04:21:09.169Z,-2.30
2019-01-24T04:23:37.703Z,-2.40
2019-01-24T04:26:06.170Z,-2.40
2019-01-24T04:28:34.641Z,-2.40
2019-01-24T04:31:03.124Z,-2.40
2019-01-24T04:33:31.634Z,-2.40
2019-01-24T04:36:00.098Z,-2.40
2019-01-24T04:38:28.621Z,-2.40
2019-01-24T04:40:57.076Z,-2.50
2019-01-24T04:43:25.618Z,-2.40
2019-01-24T04:45:54.083Z,-2.40
2019-01-24T04:48:22.528Z,-2.30
2019-01-24T04:50:51.022Z,-2.30
2019-01-24T04:53:19.501Z,-2.30
2019-01-24T04:55:47.959Z,-2.30
2019-01-24T04:58:16.418Z,-2.30
2019-01-24T05:00:44.897Z,-2.30
2019-01-24T05:03:13.428Z,-2.30
2019-01-24T05:05:41.887Z,-2.30
2019-01-24T05:08:10.344Z,-2.30
2019-01-24T05:10:38.806Z,-2.30
2019-01-24T05:13:07.254Z,-2.30
2019-01-24T05:15:35.749Z,-2.30
2019-01-24T05:18:04.182Z,-2.30
2019-01-24T05:20:32.665Z,-2.30
2019-01-24T05:23:01.126Z,-2.30
2019-01-24T05:25:29.598Z,-2.20
2019-01-24T05:27:58.128Z,-2.30
2019-01-24T05:30:26.971Z,-2.20
2019-01-24T05:32:55.557Z,-2.20
2019-01-24T05:35:24.219Z,-2.30
2019-01-24T05:37:52.637Z,-2.30
2019-01-24T05:40:21.178Z,-2.40
2019-01-24T05:42:49.781Z,-2.40
2019-01-24T05:45:18.249Z,-2.50
2019-01-24T05:47:46.705Z,-2.60
2019-01-24T05:50:15.214Z,-2.60
2019-01-24T05:52:43.789Z,-2.60
2019-01-24T05:55:13.751Z,-2.60
2019-01-24T05:57:42.222Z,-2.60
2019-01-24T06:00:15.454Z,-2.50
2019-01-24T06:02:43.902Z,-2.60
2019-01-24T06:05:13.094Z,-2.50
2019-01-24T06:07:41.544Z,-2.50
2019-01-24T06:10:15.082Z,-2.60
2019-01-24T06:12:43.557Z,-2.60
2019-01-24T06:15:16.780Z,-2.60
2019-01-24T06:17:45.338Z,-2.60
2019-01-24T06:20:14.166Z,-2.70
2019-01-24T06:22:42.698Z,-2.70
2019-01-24T06:25:12.786Z,-2.70
2019-01-24T06:27:41.334Z,-2.60
2019-01-24T06:30:18.411Z,-2.60
2019-01-24T06:32:47.022Z,-2.60
2019-01-24T06:35:15.727Z,-2.60
2019-01-24T06:37:44.468Z,-2.60
2019-01-24T06:40:14.759Z,-2.70
2019-01-24T06:42:43.404Z,-2.70
2019-01-24T06:45:14.850Z,-2.60
2019-01-24T06:47:43.330Z,-2.70
2019-01-24T06:50:13.607Z,-2.70
2019-01-24T06:52:42.074Z,-2.60
2019-01-24T06:55:13.897Z,-2.50
2019-01-24T06:57:42.486Z,-2.50
2019-01-24T07:00:19.166Z,-2.40
2019-01-24T07:02:47.716Z,-2.40
2019-01-24T07:05:16.314Z,-2.40
2019-01-24T07:07:44.846Z,-2.50
2019-01-24T07:10:15.898Z,-2.40
2019-01-24T07:12:44.382Z,-2.40
2019-01-24T07:15:17.808Z,-2.40
2019-01-24T07:17:46.332Z,-2.50
2019-01-24T07:20:16.677Z,-2.50
2019-01-24T07:22:45.190Z,-2.50
2019-01-24T07:25:22.661Z,-2.60
2019-01-24T07:27:51.311Z,-2.60
2019-01-24T07:30:20.986Z,-2.60
2019-01-24T07:32:49.541Z,-2.50
2019-01-24T07:35:18.929Z,-2.50
2019-01-24T07:37:47.493Z,-2.50
2019-01-24T07:40:17.402Z,-2.40
2019-01-24T07:42:46.065Z,-2.50
2019-01-24T07:45:20.076Z,-2.60
2019-01-24T07:47:48.560Z,-2.70
2019-01-24T07:50:17.006Z,-2.70
2019-01-24T07:52:45.490Z,-2.70
2019-01-24T07:55:14.173Z,-2.70
2019-01-24T07:57:43.089Z,-2.70
2019-01-24T08:00:14.833Z,-2.80
2019-01-24T08:02:43.312Z,-2.70
2019-01-24T08:05:13.598Z,-2.70
2019-01-24T08:07:42.249Z,-2.60
2019-01-24T08:10:16.305Z,-2.60
2019-01-24T08:12:44.964Z,-2.60
2019-01-24T08:15:18.337Z,-2.60
2019-01-24T08:17:46.815Z,-2.60
2019-01-24T08:20:26.537Z,-2.50
2019-01-24T08:22:54.989Z,-2.50
2019-01-24T08:25:23.669Z,-2.60
2019-01-24T08:27:52.231Z,-2.60
2019-01-24T08:30:29.173Z,-2.60
2019-01-24T08:32:57.658Z,-2.50
2019-01-24T08:35:26.132Z,-2.60
2019-01-24T08:37:54.592Z,-2.60
2019-01-24T08:40:24.290Z,-2.60
2019-01-24T08:42:52.925Z,-2.60
2019-01-24T08:45:21.381Z,-2.60
2019-01-24T08:47:50.013Z,-2.60
2019-01-24T08:50:23.572Z,-2.60
2019-01-24T08:52:52.046Z,-2.60
2019-01-24T08:55:23.563Z,-2.50
2019-01-24T08:57:52.033Z,-2.40
2019-01-24T09:00:21.590Z,-2.40
2019-01-24T09:02:51.080Z,-2.30
2019-01-24T09:05:20.149Z,-2.30
2019-01-24T09:07:48.759Z,-2.30
2019-01-24T09:10:20.286Z,-2.30
2019-01-24T09:12:48.910Z,-2.20
2019-01-24T09:15:17.350Z,-2.20
2019-01-24T09:17:45.821Z,-2.20
2019-01-24T09:20:19.625Z,-2.20
2019-01-24T09:22:54.953Z,-2.30
2019-01-24T09:25:18.627Z,-2.40
2019-01-24T09:27:47.087Z,-2.40
2019-01-24T09:30:21.299Z,-2.50
2019-01-24T09:32:49.782Z,-2.40
2019-01-24T09:35:18.285Z,-2.40
2019-01-24T09:37:46.746Z,-2.40
2019-01-24T09:40:17.754Z,-2.30
2019-01-24T09:42:46.273Z,-2.30
2019-01-24T09:45:25.982Z,-2.30
2019-01-24T09:47:55.952Z,-2.20
2019-01-24T09:50:25.840Z,-2.10
2019-01-24T09:52:54.293Z,-2.10
2019-01-24T09:55:22.744Z,-2.10
2019-01-24T09:57:51.350Z,-2.00
2019-01-24T10:00:22.861Z,-2.10
2019-01-24T10:02:51.438Z,-2.10
2019-01-24T10:05:20.407Z,-2.10
2019-01-24T10:07:48.942Z,-2.10
2019-01-24T10:10:24.947Z,-2.00
2019-01-24T10:12:54.351Z,-1.90
2019-01-24T10:15:23.474Z,-1.80
2019-01-24T10:17:51.960Z,-1.70
2019-01-24T10:20:25.173Z,-1.70
2019-01-24T10:22:53.771Z,-1.70
2019-01-24T10:25:24.858Z,-1.90
2019-01-24T10:27:53.332Z,-2.00
2019-01-24T10:30:24.026Z,-2.10
2019-01-24T10:32:52.648Z,-2.20
2019-01-24T10:35:21.090Z,-2.20
2019-01-24T10:37:49.721Z,-2.30
2019-01-24T10:40:21.263Z,-2.20
2019-01-24T10:42:49.812Z,-2.20
2019-01-24T10:45:20.236Z,-2.20
2019-01-24T10:47:49.763Z,-2.10
2019-01-24T10:50:20.227Z,-2.20
2019-01-24T10:52:48.717Z,-2.20
2019-01-24T10:55:19.278Z,-2.30
2019-01-24T10:57:48.170Z,-2.30
2019-01-24T11:00:22.355Z,-2.30
2019-01-24T11:02:50.839Z,-2.30
2019-01-24T11:05:20.441Z,-2.20
2019-01-24T11:07:49.078Z,-2.20
2019-01-24T11:10:20.155Z,-2.20
2019-01-24T11:12:49.012Z,-2.20
2019-01-24T11:15:22.557Z,-2.20
2019-01-24T11:17:51.100Z,-2.20
2019-01-24T11:20:20.196Z,-2.20
2019-01-24T11:22:49.803Z,-2.10
2019-01-24T11:25:22.789Z,-2.10
2019-01-24T11:27:51.375Z,-2.10
2019-01-24T11:30:22.302Z,-2.10
2019-01-24T11:32:50.821Z,-2.30
2019-01-24T11:35:21.409Z,-2.30
2019-01-24T11:37:49.872Z,-2.40
2019-01-24T11:40:19.171Z,-2.40
2019-01-24T11:42:47.725Z,-2.50
2019-01-24T11:45:18.573Z,-2.60
2019-01-24T11:47:47.109Z,-2.60
2019-01-24T11:50:19.286Z,-2.70
2019-01-24T11:52:47.757Z,-2.70
2019-01-24T11:55:18.398Z,-2.70
2019-01-24T11:57:46.874Z,-2.70
2019-01-24T12:00:20.299Z,-2.60
2019-01-24T12:02:48.769Z,-2.80
2019-01-24T12:05:17.289Z,-2.90
2019-01-24T12:07:45.750Z,-2.90
2019-01-24T12:10:22.431Z,-2.90
2019-01-24T12:12:50.901Z,-3.00
2019-01-24T12:15:21.677Z,-2.90
2019-01-24T12:17:50.226Z,-2.90
2019-01-24T12:20:22.882Z,-2.90
2019-01-24T12:22:51.442Z,-2.80
2019-01-24T12:25:19.966Z,-2.80
2019-01-24T12:27:48.577Z,-2.70
2019-01-24T12:30:31.398Z,-2.90
2019-01-24T12:33:00.294Z,-2.90
2019-01-24T12:35:29.100Z,-2.90
2019-01-24T12:37:57.650Z,-2.90
2019-01-24T12:40:26.333Z,-3.00
2019-01-24T12:42:54.818Z,-3.00
2019-01-24T12:45:28.670Z,-3.00
2019-01-24T12:47:57.148Z,-3.00
2019-01-24T12:50:25.607Z,-3.00
2019-01-24T12:52:54.151Z,-3.10
2019-01-24T12:55:22.602Z,-3.10
2019-01-24T12:57:51.071Z,-3.20
2019-01-24T13:00:28.327Z,-3.20
2019-01-24T13:02:56.878Z,-3.20
2019-01-24T13:05:25.323Z,-3.10
2019-01-24T13:07:53.796Z,-3.00
2019-01-24T13:10:24.028Z,-2.90
2019-01-24T13:12:52.634Z,-2.90
2019-01-24T13:15:25.828Z,-3.00
2019-01-24T13:17:54.281Z,-3.10
2019-01-24T13:20:22.738Z,-3.10
2019-01-24T13:22:51.194Z,-3.20
2019-01-24T13:25:25.046Z,-3.10
2019-01-24T13:27:53.497Z,-3.10
2019-01-24T13:30:24.112Z,-3.20
2019-01-24T13:32:52.558Z,-3.20
2019-01-24T13:35:21.090Z,-3.10
2019-01-24T13:37:49.559Z,-3.10
2019-01-24T13:40:23.120Z,-3.10
2019-01-24T13:42:51.580Z,-3.10
2019-01-24T13:45:22.488Z,-3.10
2019-01-24T13:47:50.959Z,-3.10
2019-01-24T13:50:19.668Z,-3.00
2019-01-24T13:52:48.119Z,-3.00
2019-01-24T13:55:16.646Z,-3.00
2019-01-24T13:57:45.361Z,-3.00
2019-01-24T14:00:19.938Z,-3.00
2019-01-24T14:02:51.993Z,-2.90
2019-01-24T14:05:20.623Z,-2.90
2019-01-24T14:07:49.144Z,-2.90
2019-01-24T14:10:18.256Z,-2.90
2019-01-24T14:12:46.695Z,-2.80
2019-01-24T14:15:18.956Z,-2.80
2019-01-24T14:17:47.478Z,-2.80
2019-01-24T14:20:20.830Z,-2.80
2019-01-24T14:22:49.820Z,-2.80
2019-01-24T14:25:19.609Z,-2.90
2019-01-24T14:27:48.064Z,-2.80
2019-01-24T14:30:22.589Z,-2.80
2019-01-24T14:32:51.192Z,-2.80
2019-01-24T14:35:19.647Z,-2.80
2019-01-24T14:37:48.483Z,-2.80
2019-01-24T14:40:17.008Z,-2.90
2019-01-24T14:42:45.529Z,-2.90
2019-01-24T14:45:17.078Z,-3.00
2019-01-24T14:47:45.529Z,-3.00
2019-01-24T14:50:19.460Z,-2.90
2019-01-24T14:52:48.028Z,-2.90
2019-01-24T14:55:16.594Z,-2.90
2019-01-24T14:57:45.049Z,-2.80
2019-01-24T15:00:34.389Z,-2.80
2019-01-24T15:03:03.132Z,-2.80
2019-01-24T15:05:31.670Z,-2.70
2019-01-24T15:08:00.367Z,-2.70
2019-01-24T15:10:29.979Z,-2.70
2019-01-24T15:12:58.473Z,-2.70
2019-01-24T15:15:27.017Z,-2.70
2019-01-24T15:17:55.526Z,-2.70
2019-01-24T15:20:24.072Z,-2.70
2019-01-24T15:22:52.529Z,-2.70
2019-01-24T15:25:22.738Z,-2.70
2019-01-24T15:27:51.161Z,-2.70
2019-01-24T15:30:29.267Z,-2.60
2019-01-24T15:32:57.741Z,-2.70
2019-01-24T15:35:26.204Z,-2.70
2019-01-24T15:37:54.996Z,-2.60
2019-01-24T15:40:28.985Z,-2.60
2019-01-24T15:42:57.494Z,-2.60
2019-01-24T15:45:26.056Z,-2.60
2019-01-24T15:47:54.687Z,-2.70
2019-01-24T15:50:24.423Z,-2.70
2019-01-24T15:52:52.927Z,-2.70
2019-01-24T15:55:21.642Z,-2.70
2019-01-24T15:57:50.101Z,-2.80
2019-01-24T16:00:24.339Z,-2.80
2019-01-24T16:02:52.859Z,-2.80
2019-01-24T16:05:21.418Z,-2.80
2019-01-24T16:07:49.859Z,-2.80
2019-01-24T16:10:20.375Z,-2.70
2019-01-24T16:12:48.976Z,-2.70
2019-01-24T16:15:20.475Z,-2.70
2019-01-24T16:17:48.980Z,-2.70
2019-01-24T16:20:20.277Z,-2.70
2019-01-24T16:22:48.765Z,-2.70
2019-01-24T16:25:19.563Z,-2.70
2019-01-24T16:27:48.058Z,-2.70
2019-01-24T16:30:24.675Z,-2.70
2019-01-24T16:32:53.289Z,-2.60
2019-01-24T16:35:21.836Z,-2.60
2019-01-24T16:37:50.325Z,-2.60
2019-01-24T16:40:21.313Z,-2.60
2019-01-24T16:42:49.762Z,-2.70
2019-01-24T16:45:23.273Z,-2.70
2019-01-24T16:47:51.803Z,-2.70
2019-01-24T16:50:22.218Z,-2.80
2019-01-24T16:52:50.744Z,-2.80
2019-01-24T16:55:19.454Z,-2.80
2019-01-24T16:57:49.412Z,-2.80
2019-01-24T17:00:23.832Z,-2.80
2019-01-24T17:02:52.280Z,-2.80
2019-01-24T17:05:20.768Z,-2.70
2019-01-24T17:07:49.202Z,-3.30
2019-01-24T17:10:20.481Z,-2.80
2019-01-24T17:12:49.014Z,-2.90
2019-01-24T17:15:18.810Z,-2.80
2019-01-24T17:17:47.431Z,-2.80
2019-01-24T17:20:18.516Z,-2.80
2019-01-24T17:22:47.154Z,-2.80
2019-01-24T17:25:15.674Z,-2.70
2019-01-24T17:27:46.369Z,-2.70
2019-01-24T17:30:22.322Z,-2.70
2019-01-24T17:32:51.109Z,-2.70
2019-01-24T17:35:19.811Z,-2.60
2019-01-24T17:37:48.478Z,-2.60
2019-01-24T17:40:31.170Z,-2.60
2019-01-24T17:42:59.739Z,-2.60
2019-01-24T17:45:28.433Z,-2.60
2019-01-24T17:47:56.958Z,-2.60
2019-01-24T17:50:25.527Z,-2.60
2019-01-24T17:52:54.323Z,-2.60
2019-01-24T17:55:28.440Z,-2.60
2019-01-24T17:57:56.977Z,-2.70
2019-01-24T18:00:27.194Z,-2.70
2019-01-24T18:02:55.699Z,-2.70
2019-01-24T18:05:24.349Z,-2.70
2019-01-24T18:07:52.922Z,-2.80
2019-01-24T18:10:26.527Z,-2.80
2019-01-24T18:12:54.990Z,-2.80
2019-01-24T18:15:26.045Z,-2.90
2019-01-24T18:17:54.654Z,-3.00
2019-01-24T18:20:32.063Z,-3.00
2019-01-24T18:23:00.691Z,-3.00
2019-01-24T18:25:29.415Z,-3.00
2019-01-24T18:27:57.870Z,-3.00
2019-01-24T18:30:28.161Z,-2.90
2019-01-24T18:32:57.069Z,-2.90
2019-01-24T18:35:25.756Z,-2.90
2019-01-24T18:37:54.243Z,-2.90
2019-01-24T18:40:27.963Z,-2.90
2019-01-24T18:42:56.834Z,-3.00
2019-01-24T18:45:34.140Z,-2.90
2019-01-24T18:48:02.610Z,-2.90
2019-01-24T18:50:31.434Z,-2.90
2019-01-24T18:52:59.982Z,-3.00
2019-01-24T18:55:28.414Z,-2.90
2019-01-24T18:57:56.898Z,-2.90
2019-01-24T19:00:28.195Z,-2.80
2019-01-24T19:02:56.669Z,-2.70
2019-01-24T19:05:25.108Z,-2.10
2019-01-24T19:07:53.580Z,-2.70
2019-01-24T19:10:22.026Z,-2.80
2019-01-24T19:12:50.515Z,-2.80
2019-01-24T19:15:20.716Z,-2.80
2019-01-24T19:17:49.446Z,-2.80
2019-01-24T19:20:17.947Z,-2.80
2019-01-24T19:22:46.554Z,-2.90
2019-01-24T19:25:21.566Z,-2.80
2019-01-24T19:27:53.039Z,-2.80
2019-01-24T19:30:26.761Z,-2.90
2019-01-24T19:32:55.489Z,-2.90
2019-01-24T19:35:24.112Z,-2.90
2019-01-24T19:37:52.566Z,-2.90
2019-01-24T19:40:23.254Z,-2.90
2019-01-24T19:42:51.711Z,-3.00
2019-01-24T19:45:21.909Z,-3.00
2019-01-24T19:47:50.445Z,-3.00
2019-01-24T19:50:20.947Z,-3.00
2019-01-24T19:52:49.544Z,-3.00
2019-01-24T19:55:18.341Z,-2.90
2019-01-24T19:57:46.809Z,-2.90
2019-01-24T20:00:28.747Z,-2.80
2019-01-24T20:02:57.335Z,-2.80
2019-01-24T20:05:26.097Z,-2.80
2019-01-24T20:07:54.708Z,-2.70
2019-01-24T20:10:26.296Z,-2.70
2019-01-24T20:12:54.756Z,-2.60
2019-01-24T20:15:25.035Z,-2.60
2019-01-24T20:17:53.636Z,-2.60
2019-01-24T20:20:22.074Z,-2.80
2019-01-24T20:22:50.951Z,-2.70
2019-01-24T20:25:22.215Z,-2.60
2019-01-24T20:27:50.964Z,-2.50
2019-01-24T20:30:24.526Z,-2.60
2019-01-24T20:32:53.254Z,-2.60
2019-01-24T20:35:42.763Z,-2.60
2019-01-24T20:38:12.075Z,-2.60
2019-01-24T20:40:40.666Z,-2.70
2019-01-24T20:43:11.066Z,-2.60
2019-01-24T20:45:39.802Z,-2.60
2019-01-24T20:48:08.254Z,-2.50
2019-01-24T20:50:36.707Z,-2.60
2019-01-24T20:53:05.433Z,-2.60
2019-01-24T20:55:34.018Z,-2.60
2019-01-24T20:58:02.485Z,-2.60
2019-01-24T21:00:30.937Z,-2.50
2019-01-24T21:02:59.472Z,-2.50
2019-01-24T21:05:27.910Z,-2.60
2019-01-24T21:07:56.375Z,-2.80
2019-01-24T21:10:26.371Z,-2.80
2019-01-24T21:12:55.011Z,-2.70
2019-01-24T21:15:23.527Z,-2.70
2019-01-24T21:17:51.993Z,-2.60
2019-01-24T21:20:26.051Z,-2.60
2019-01-24T21:22:54.587Z,-2.70
2019-01-24T21:25:24.361Z,-2.70
2019-01-24T21:27:52.801Z,-2.70
2019-01-24T21:30:24.192Z,-2.60
2019-01-24T21:32:52.711Z,-2.60
2019-01-24T21:35:21.170Z,-2.60
2019-01-24T21:37:49.680Z,-2.60
2019-01-24T21:40:22.361Z,-2.60
2019-01-24T21:42:50.876Z,-2.50
2019-01-24T21:45:21.891Z,-2.60
2019-01-24T21:47:50.343Z,-2.50
2019-01-24T21:50:21.576Z,-2.70
2019-01-24T21:52:50.205Z,-2.10
2019-01-24T21:55:19.206Z,-2.70
2019-01-24T21:57:47.833Z,-2.60
2019-01-24T22:00:18.642Z,-2.50
2019-01-24T22:02:47.158Z,-2.50
2019-01-24T22:05:16.563Z,-2.60
2019-01-24T22:07:45.086Z,-2.60
2019-01-24T22:10:16.627Z,-2.60
2019-01-24T22:12:45.075Z,-2.60
2019-01-24T22:15:16.238Z,-2.70
2019-01-24T22:17:44.690Z,-2.70
2019-01-24T22:20:14.900Z,-2.80
2019-01-24T22:22:43.422Z,-2.90
2019-01-24T22:25:17.192Z,-2.90
2019-01-24T22:27:45.711Z,-2.90
2019-01-24T22:30:20.034Z,-2.90
2019-01-24T22:32:48.498Z,-2.90
2019-01-24T22:35:17.032Z,-2.80
2019-01-24T22:37:45.636Z,-2.70
2019-01-24T22:40:15.239Z,-2.70
2019-01-24T22:42:43.705Z,-2.70
2019-01-24T22:45:15.768Z,-2.60
2019-01-24T22:47:44.279Z,-2.70
2019-01-24T22:50:15.191Z,-2.70
2019-01-24T22:52:44.541Z,-2.60
2019-01-24T22:55:13.847Z,-2.50
2019-01-24T22:57:42.307Z,-2.50
2019-01-24T23:00:15.105Z,-2.50
2019-01-24T23:02:43.551Z,-2.40
2019-01-24T23:05:12.093Z,-2.40
2019-01-24T23:07:40.557Z,-2.50
2019-01-24T23:10:10.455Z,-2.50
2019-01-24T23:12:38.904Z,-2.50
2019-01-24T23:15:10.108Z,-2.60
2019-01-24T23:17:38.574Z,-2.60
2019-01-24T23:20:12.159Z,-2.70
2019-01-24T23:22:40.627Z,-2.80
2019-01-24T23:25:09.086Z,-2.70
2019-01-24T23:27:37.529Z,-2.70
2019-01-24T23:30:09.070Z,-2.60
2019-01-24T23:32:37.548Z,-2.60
2019-01-24T23:35:07.028Z,-2.50
2019-01-24T23:37:35.470Z,-2.50
2019-01-24T23:40:06.582Z,-2.50
2019-01-24T23:42:35.102Z,-2.50
2019-01-24T23:45:04.058Z,-2.50
2019-01-24T23:47:32.496Z,-2.60
2019-01-24T23:50:00.976Z,-2.60
2019-01-24T23:52:29.430Z,-2.60
2019-01-24T23:54:57.912Z,-2.60
2019-01-24T23:57:26.378Z,-2.50
2019-01-24T23:59:54.846Z,-2.50
